Time;durP1;ratioP1;P1;durP2;ratioP2;P2;SDS_P1;SDS_P2;PMS_P1;PMS_P2;Temp;Humidity;BMP_temperature;BMP_pressure;BME280_temperature;BME280_humidity;BME280_pressure;Samples;Min_cycle;Max_cycle;Signal;HPM_P1;HPM_P2
2023/06/26 00:00:26;;;;;;;0.30;0.30;;;22.20;99.90;;;;;;5073151;28;20048;-61
2023/06/26 00:02:51;;;;;;;0.65;0.65;;;22.50;99.90;;;;;;5072629;28;20060;-61
2023/06/26 00:05:17;;;;;;;0.50;0.47;;;22.20;99.90;;;;;;5072935;28;20089;-61
2023/06/26 00:07:43;;;;;;;0.75;0.75;;;22.40;99.90;;;;;;5072836;28;20087;-61
2023/06/26 00:10:09;;;;;;;0.88;0.60;;;22.30;99.90;;;;;;5072742;28;20051;-61
2023/06/26 00:12:34;;;;;;;0.57;0.57;;;22.30;99.90;;;;;;5072600;28;20536;-61
2023/06/26 00:15:00;;;;;;;0.63;0.63;;;22.20;99.90;;;;;;5072836;28;20127;-61
2023/06/26 00:17:26;;;;;;;1.10;1.00;;;22.10;99.90;;;;;;5072731;28;20175;-61
2023/06/26 00:19:52;;;;;;;0.93;0.93;;;22.30;99.90;;;;;;5072666;28;20113;-61
2023/06/26 00:22:18;;;;;;;0.75;0.75;;;22.10;99.90;;;;;;5071292;28;20055;-61
2023/06/26 00:24:47;;;;;;;0.38;0.38;;;22.10;99.90;;;;;;5071861;28;20504;-61
2023/06/26 00:27:13;;;;;;;1.00;0.90;;;22.00;99.90;;;;;;5071938;28;20040;-61
2023/06/26 00:29:38;;;;;;;0.77;0.77;;;22.00;99.90;;;;;;5072487;28;20056;-61
2023/06/26 00:32:06;;;;;;;0.40;0.40;;;22.10;99.90;;;;;;5072444;28;20124;-61
2023/06/26 00:34:31;;;;;;;0.40;0.40;;;22.00;99.90;;;;;;5072188;28;20515;-61
2023/06/26 00:36:57;;;;;;;0.43;0.43;;;22.10;99.90;;;;;;5072371;28;20204;-61
2023/06/26 00:39:25;;;;;;;0.90;0.77;;;22.10;99.90;;;;;;5072212;28;20048;-61
2023/06/26 00:41:53;;;;;;;2.78;0.55;;;21.80;99.90;;;;;;5071951;28;20447;-61
2023/06/26 00:44:19;;;;;;;0.57;0.57;;;21.60;99.90;;;;;;5072207;28;20188;-61
2023/06/26 00:46:45;;;;;;;0.82;0.80;;;21.80;99.90;;;;;;5072112;28;20515;-61
2023/06/26 00:49:12;;;;;;;0.60;0.60;;;21.80;99.90;;;;;;5072072;28;20403;-61
2023/06/26 00:51:38;;;;;;;1.05;0.93;;;21.70;99.90;;;;;;5071922;28;20484;-61
2023/06/26 00:54:04;;;;;;;0.80;0.52;;;22.10;99.90;;;;;;5071900;28;20043;-61
2023/06/26 00:56:31;;;;;;;0.35;0.32;;;21.70;99.90;;;;;;5071813;28;20091;-61
2023/06/26 00:58:57;;;;;;;2.75;0.65;;;21.40;99.90;;;;;;5072162;28;20048;-62
2023/06/26 01:01:25;;;;;;;0.82;0.82;;;21.70;99.90;;;;;;5071917;28;20079;-61
2023/06/26 01:03:52;;;;;;;0.80;0.80;;;22.00;99.90;;;;;;5071752;28;20060;-61
2023/06/26 01:06:21;;;;;;;3.50;0.80;;;21.90;99.90;;;;;;5071608;28;20151;-61
2023/06/26 01:08:48;;;;;;;0.43;0.30;;;21.50;99.90;;;;;;5071621;28;20455;-61
2023/06/26 01:11:14;;;;;;;0.30;0.30;;;21.60;99.90;;;;;;5071485;28;20051;-61
2023/06/26 01:13:43;;;;;;;0.40;0.40;;;22.00;99.90;;;;;;5071632;28;20047;-61
2023/06/26 01:16:10;;;;;;;1.25;1.15;;;21.90;99.90;;;;;;5071533;28;20484;-61
2023/06/26 01:18:41;;;;;;;1.10;0.88;;;21.80;99.90;;;;;;5071571;28;20557;-61
2023/06/26 01:21:09;;;;;;;0.20;0.20;;;21.90;99.90;;;;;;5071524;28;20131;-61
2023/06/26 01:24:05;;;;;;;0.30;0.30;;;21.80;99.90;;;;;;5071218;28;20047;-61
2023/06/26 01:26:35;;;;;;;1.05;0.77;;;21.70;99.90;;;;;;5071459;28;20040;-61
2023/06/26 01:29:02;;;;;;;0.90;0.90;;;21.80;99.90;;;;;;5070342;28;20040;-61
2023/06/26 01:31:30;;;;;;;0.63;0.63;;;21.70;99.90;;;;;;5071414;28;20151;-61
2023/06/26 01:33:57;;;;;;;0.43;0.43;;;21.60;99.90;;;;;;5071458;28;20119;-61
2023/06/26 01:36:23;;;;;;;0.52;0.50;;;21.40;99.90;;;;;;5071202;28;20048;-61
2023/06/26 01:38:49;;;;;;;0.82;0.57;;;21.50;99.90;;;;;;5071337;28;20071;-61
2023/06/26 01:41:15;;;;;;;0.52;0.52;;;21.80;99.90;;;;;;5071225;28;20048;-61
2023/06/26 01:44:01;;;;;;;0.45;0.45;;;21.60;99.90;;;;;;5071157;28;20044;-61
2023/06/26 01:46:38;;;;;;;1.10;0.88;;;21.60;99.90;;;;;;5071091;28;20052;-61
2023/06/26 01:49:13;;;;;;;1.02;0.93;;;21.70;99.90;;;;;;5071122;28;20098;-61
2023/06/26 01:51:49;;;;;;;2.70;0.57;;;21.30;99.90;;;;;;5071108;28;20083;-61
2023/06/26 01:54:22;;;;;;;1.45;1.38;;;21.30;99.90;;;;;;5071058;28;20603;-61
2023/06/26 01:56:52;;;;;;;1.98;0.82;;;21.50;99.90;;;;;;5071002;28;20056;-61
2023/06/26 01:59:20;;;;;;;0.80;0.80;;;21.10;99.90;;;;;;5070845;28;20091;-61
2023/06/26 02:01:46;;;;;;;0.60;0.60;;;21.60;99.90;;;;;;5070718;28;20064;-61
2023/06/26 02:04:12;;;;;;;2.05;1.85;;;21.10;99.90;;;;;;5071053;28;20469;-61
2023/06/26 02:06:38;;;;;;;0.63;0.63;;;21.10;99.90;;;;;;5070781;28;20060;-61
2023/06/26 02:09:03;;;;;;;0.65;0.65;;;21.20;99.90;;;;;;5070870;28;20129;-61
2023/06/26 02:11:29;;;;;;;0.50;0.50;;;21.40;99.90;;;;;;5070727;28;20136;-61
2023/06/26 02:13:55;;;;;;;1.08;0.85;;;21.40;99.90;;;;;;5070988;28;20055;-61
2023/06/26 02:16:21;;;;;;;0.77;0.77;;;21.10;99.90;;;;;;5069720;28;20485;-61
2023/06/26 02:18:46;;;;;;;0.65;0.60;;;21.30;99.90;;;;;;5070816;28;20102;-61
2023/06/26 02:21:13;;;;;;;1.20;1.02;;;20.90;99.90;;;;;;5070796;28;20048;-61
2023/06/26 02:23:39;;;;;;;0.70;0.70;;;21.00;99.90;;;;;;5070613;28;20052;-60
2023/06/26 02:26:04;;;;;;;0.70;0.68;;;20.70;99.90;;;;;;5070671;28;20782;-61
2023/06/26 02:28:31;;;;;;;0.50;0.50;;;20.90;99.90;;;;;;5069482;28;20056;-61
2023/06/26 02:30:56;;;;;;;0.50;0.50;;;20.70;99.90;;;;;;5070688;28;20464;-61
2023/06/26 02:33:22;;;;;;;0.63;0.63;;;20.50;99.90;;;;;;5070699;28;20045;-61
2023/06/26 02:35:50;;;;;;;0.65;0.65;;;20.80;99.90;;;;;;5070607;28;20508;-61
2023/06/26 02:38:16;;;;;;;0.52;0.52;;;20.50;99.90;;;;;;5070656;28;20048;-61
2023/06/26 02:40:41;;;;;;;0.80;0.70;;;20.70;99.90;;;;;;5070645;28;20053;-61
2023/06/26 02:43:07;;;;;;;1.80;1.70;;;20.70;99.90;;;;;;5070555;28;20045;-61
2023/06/26 02:45:33;;;;;;;0.95;0.90;;;20.30;99.90;;;;;;5070722;28;20051;-61
2023/06/26 02:47:58;;;;;;;1.38;0.73;;;20.50;99.90;;;;;;5070435;28;20149;-61
2023/06/26 02:50:24;;;;;;;1.38;1.27;;;20.20;99.90;;;;;;5074178;28;20044;-60
2023/06/26 02:52:52;;;;;;;1.38;1.17;;;20.50;99.90;;;;;;5074226;28;20063;-61
2023/06/26 02:55:19;;;;;;;0.68;0.68;;;20.10;99.90;;;;;;5074150;28;20040;-61
2023/06/26 02:57:45;;;;;;;1.40;1.08;;;20.00;99.90;;;;;;5073979;28;20102;-61
2023/06/26 03:00:11;;;;;;;0.45;0.45;;;20.10;99.90;;;;;;5074194;28;20040;-61
2023/06/26 03:02:37;;;;;;;1.33;1.17;;;20.00;99.90;;;;;;5073820;28;20063;-61
2023/06/26 03:05:04;;;;;;;1.33;1.13;;;19.80;99.90;;;;;;5073967;28;20056;-61
2023/06/26 03:07:29;;;;;;;0.90;0.88;;;20.00;99.90;;;;;;5073964;28;20209;-61
2023/06/26 03:09:55;;;;;;;0.93;0.93;;;19.80;99.90;;;;;;5073819;28;20048;-61
2023/06/26 03:12:21;;;;;;;0.80;0.80;;;20.00;99.90;;;;;;5073636;28;20457;-61
2023/06/26 03:14:47;;;;;;;0.88;0.70;;;20.10;99.90;;;;;;5073912;28;20127;-61
2023/06/26 03:17:12;;;;;;;1.83;1.50;;;19.70;99.90;;;;;;5073859;28;20052;-61
2023/06/26 03:19:38;;;;;;;1.10;1.00;;;19.90;99.90;;;;;;5073807;28;20052;-61
2023/06/26 03:22:04;;;;;;;1.85;1.55;;;20.00;99.90;;;;;;5073594;28;20040;-61
2023/06/26 03:24:30;;;;;;;1.02;0.80;;;19.80;99.90;;;;;;5073573;28;20404;-61
2023/06/26 03:26:55;;;;;;;1.50;1.40;;;19.60;99.90;;;;;;5073930;28;20480;-61
2023/06/26 03:29:21;;;;;;;1.05;0.93;;;19.70;99.90;;;;;;5073723;28;20052;-61
2023/06/26 03:31:47;;;;;;;0.68;0.68;;;19.70;99.90;;;;;;5073663;28;20087;-61
2023/06/26 03:34:13;;;;;;;1.98;1.85;;;19.80;99.90;;;;;;5073484;28;20056;-61
2023/06/26 03:36:38;;;;;;;1.25;0.75;;;20.00;99.90;;;;;;5073374;28;20113;-61
2023/06/26 03:39:04;;;;;;;1.55;1.20;;;19.60;99.90;;;;;;5073311;28;20492;-61
2023/06/26 03:41:30;;;;;;;1.10;1.05;;;20.00;99.90;;;;;;5073394;28;20473;-61
2023/06/26 03:43:56;;;;;;;1.02;0.75;;;20.20;99.90;;;;;;5073391;28;20048;-61
2023/06/26 03:46:22;;;;;;;1.00;1.00;;;20.10;99.90;;;;;;5073324;28;20052;-61
2023/06/26 03:48:48;;;;;;;1.98;1.20;;;20.10;99.90;;;;;;5073344;28;20408;-61
2023/06/26 03:51:15;;;;;;;0.68;0.68;;;20.20;99.90;;;;;;5073053;28;20052;-61
2023/06/26 03:53:40;;;;;;;1.75;0.93;;;19.80;99.90;;;;;;5072974;28;20040;-61
2023/06/26 03:56:06;;;;;;;0.88;0.85;;;19.90;99.90;;;;;;5072921;28;20044;-61
2023/06/26 03:58:32;;;;;;;0.68;0.68;;;20.00;99.90;;;;;;5073064;28;20049;-61
2023/06/26 04:00:58;;;;;;;1.63;1.00;;;19.80;99.90;;;;;;5072779;28;20153;-61
2023/06/26 04:03:24;;;;;;;0.60;0.60;;;20.50;99.90;;;;;;5072799;28;20055;-61
2023/06/26 04:05:50;;;;;;;0.77;0.77;;;20.40;99.90;;;;;;5072857;28;20056;-61
2023/06/26 04:08:15;;;;;;;0.88;0.88;;;20.30;99.90;;;;;;5072755;28;20040;-61
2023/06/26 04:10:41;;;;;;;1.70;1.60;;;20.10;99.90;;;;;;5072938;28;20048;-62
2023/06/26 04:13:07;;;;;;;0.57;0.57;;;20.60;99.90;;;;;;5071640;28;20392;-61
2023/06/26 04:15:32;;;;;;;2.72;1.02;;;20.60;99.90;;;;;;5071708;28;20045;-60
2023/06/26 04:17:58;;;;;;;8.10;2.20;;;20.60;99.90;;;;;;5072776;28;20049;-61
2023/06/26 04:20:23;;;;;;;0.35;0.35;;;20.80;99.90;;;;;;5072841;28;20465;-61
2023/06/26 04:22:49;;;;;;;1.08;1.05;;;20.60;99.90;;;;;;5072550;28;20041;-61
2023/06/26 04:25:15;;;;;;;0.40;0.40;;;20.70;99.90;;;;;;5072423;28;20159;-61
2023/06/26 04:27:41;;;;;;;0.57;0.52;;;20.30;99.90;;;;;;5072568;28;20048;-61
2023/06/26 04:30:07;;;;;;;0.70;0.63;;;20.70;99.90;;;;;;5072494;28;20128;-61
2023/06/26 04:32:33;;;;;;;0.90;0.90;;;20.40;99.90;;;;;;5072362;28;20082;-61
2023/06/26 04:34:59;;;;;;;1.25;1.15;;;20.90;99.90;;;;;;5072318;28;20040;-61
2023/06/26 04:37:26;;;;;;;0.75;0.75;;;20.20;99.90;;;;;;5072236;28;20060;-60
2023/06/26 04:39:51;;;;;;;4.47;1.88;;;20.40;99.90;;;;;;5072024;28;20090;-60
2023/06/26 04:42:18;;;;;;;0.95;0.82;;;20.40;99.90;;;;;;5072181;28;20569;-61
2023/06/26 04:44:44;;;;;;;1.90;1.27;;;20.60;99.90;;;;;;5072085;28;20080;-61
2023/06/26 04:47:10;;;;;;;1.17;1.00;;;20.50;99.90;;;;;;5072013;28;20134;-61
2023/06/26 04:49:35;;;;;;;0.98;0.93;;;20.60;99.90;;;;;;5072006;28;20575;-61
2023/06/26 04:52:01;;;;;;;5.30;2.70;;;20.80;99.90;;;;;;5071824;28;20147;-61
2023/06/26 04:54:27;;;;;;;1.15;1.05;;;20.40;99.90;;;;;;5071764;28;20374;-61
2023/06/26 04:56:53;;;;;;;1.85;0.98;;;20.30;99.90;;;;;;5070891;28;20137;-61
2023/06/26 04:59:19;;;;;;;9.55;1.70;;;20.40;99.90;;;;;;5071858;28;20105;-61
2023/06/26 05:01:47;;;;;;;2.20;1.80;;;20.50;99.90;;;;;;5071474;28;20456;-60
2023/06/26 05:04:15;;;;;;;1.38;0.93;;;20.40;99.90;;;;;;5071701;28;20056;-61
2023/06/26 05:06:41;;;;;;;0.63;0.63;;;19.80;99.90;;;;;;5071594;28;20067;-61
2023/06/26 05:09:07;;;;;;;1.40;1.30;;;20.00;99.90;;;;;;5071734;28;20445;-60
2023/06/26 05:11:32;;;;;;;0.30;0.30;;;19.90;99.90;;;;;;5071205;28;20133;-61
2023/06/26 05:13:58;;;;;;;1.30;0.82;;;20.30;99.90;;;;;;5071557;28;20516;-61
2023/06/26 05:16:24;;;;;;;5.60;1.25;;;20.20;99.90;;;;;;5071540;28;20044;-61
2023/06/26 05:18:50;;;;;;;0.45;0.45;;;19.70;99.90;;;;;;5071462;28;20051;-61
2023/06/26 05:21:16;;;;;;;0.73;0.73;;;19.70;99.90;;;;;;5071512;28;20048;-61
2023/06/26 05:23:44;;;;;;;0.35;0.35;;;19.50;99.90;;;;;;5071863;28;20040;-61
2023/06/26 05:26:10;;;;;;;3.00;1.48;;;19.50;99.90;;;;;;5070288;28;20106;-61
2023/06/26 05:28:37;;;;;;;0.60;0.47;;;19.50;99.90;;;;;;5071417;28;20063;-61
2023/06/26 05:31:04;;;;;;;0.93;0.93;;;19.50;99.90;;;;;;5071314;28;20057;-61
2023/06/26 05:33:34;;;;;;;0.55;0.55;;;19.60;99.90;;;;;;5071222;28;20416;-61
2023/06/26 05:36:01;;;;;;;0.63;0.63;;;19.70;99.90;;;;;;5071136;28;20058;-60
2023/06/26 05:38:27;;;;;;;0.50;0.50;;;19.40;99.90;;;;;;5071287;28;20051;-60
2023/06/26 05:40:53;;;;;;;0.75;0.28;;;19.40;99.90;;;;;;5071235;28;20048;-61
2023/06/26 05:43:20;;;;;;;0.93;0.93;;;19.10;99.90;;;;;;5071116;28;20044;-60
2023/06/26 05:45:48;;;;;;;0.17;0.17;;;19.60;99.90;;;;;;5071195;28;20060;-61
2023/06/26 05:48:14;;;;;;;1.20;0.30;;;19.30;99.90;;;;;;5071061;28;20185;-61
2023/06/26 05:50:41;;;;;;;0.47;0.45;;;19.30;99.90;;;;;;5070961;28;20514;-60
2023/06/26 05:53:08;;;;;;;0.38;0.35;;;18.90;99.90;;;;;;5071187;28;20051;-60
2023/06/26 05:55:34;;;;;;;0.35;0.32;;;19.00;99.90;;;;;;5071299;28;20041;-61
2023/06/26 05:58:00;;;;;;;0.10;0.10;;;19.20;99.90;;;;;;5071056;28;20097;-61
2023/06/26 06:00:27;;;;;;;0.30;0.30;;;19.40;99.90;;;;;;5071052;28;20056;-61
2023/06/26 06:02:54;;;;;;;0.85;0.85;;;19.70;99.90;;;;;;5071252;28;20400;-61
2023/06/26 06:05:23;;;;;;;0.52;0.43;;;19.80;99.90;;;;;;5070884;28;20057;-61
2023/06/26 06:07:49;;;;;;;0.47;0.40;;;19.80;99.90;;;;;;5071023;28;20084;-60
2023/06/26 06:10:15;;;;;;;1.10;1.02;;;19.70;99.90;;;;;;5070943;28;20161;-61
2023/06/26 06:12:40;;;;;;;0.50;0.50;;;19.80;99.90;;;;;;5070919;28;20793;-61
2023/06/26 06:15:07;;;;;;;0.88;0.88;;;20.20;99.90;;;;;;5070913;28;20127;-61
2023/06/26 06:17:33;;;;;;;1.25;0.68;;;20.10;99.90;;;;;;5070630;28;20060;-61
2023/06/26 06:19:58;;;;;;;0.50;0.50;;;19.90;99.90;;;;;;5070675;28;20060;-61
2023/06/26 06:22:24;;;;;;;0.32;0.32;;;20.50;99.90;;;;;;5070781;28;20575;-60
2023/06/26 06:24:51;;;;;;;0.38;0.38;;;20.50;99.90;;;;;;5073701;28;20051;-61
2023/06/26 06:27:16;;;;;;;0.38;0.38;;;20.40;99.90;;;;;;5074813;28;20052;-61
2023/06/26 06:29:42;;;;;;;0.45;0.15;;;19.90;99.90;;;;;;5074694;28;20106;-61
2023/06/26 06:32:08;;;;;;;0.20;0.20;;;20.20;99.90;;;;;;5074585;28;20345;-60
2023/06/26 06:34:34;;;;;;;1.55;1.20;;;20.30;99.90;;;;;;5074453;28;20064;-61
2023/06/26 06:36:59;;;;;;;0.43;0.43;;;20.00;99.90;;;;;;5074661;28;20059;-61
2023/06/26 06:39:25;;;;;;;0.98;0.38;;;20.40;99.90;;;;;;5074718;28;20113;-61
2023/06/26 06:41:51;;;;;;;1.20;0.88;;;20.10;99.90;;;;;;5074430;28;20044;-61
2023/06/26 06:44:17;;;;;;;0.38;0.38;;;20.50;99.90;;;;;;5074476;28;20041;-61
2023/06/26 06:46:43;;;;;;;1.60;0.73;;;20.80;99.90;;;;;;5074375;28;20711;-61
2023/06/26 06:49:09;;;;;;;0.20;0.15;;;20.60;99.90;;;;;;5074213;28;20094;-62
2023/06/26 06:51:34;;;;;;;2.45;0.20;;;20.60;99.90;;;;;;5073137;28;20040;-62
2023/06/26 06:54:01;;;;;;;0.32;0.32;;;20.60;99.90;;;;;;5074335;28;20048;-61
2023/06/26 06:56:26;;;;;;;0.22;0.22;;;20.60;99.90;;;;;;5074253;28;20143;-62
2023/06/26 06:58:52;;;;;;;0.28;0.28;;;20.60;99.90;;;;;;5074102;28;20136;-61
2023/06/26 07:01:18;;;;;;;0.47;0.47;;;20.60;99.90;;;;;;5074100;28;20052;-61
2023/06/26 07:03:43;;;;;;;0.47;0.25;;;20.40;99.90;;;;;;5074088;28;20525;-60
2023/06/26 07:06:09;;;;;;;2.17;0.43;;;20.60;99.90;;;;;;5074126;28;20063;-60
2023/06/26 07:08:35;;;;;;;0.40;0.40;;;20.70;99.90;;;;;;5074067;28;20395;-61
2023/06/26 07:11:01;;;;;;;0.15;0.15;;;20.80;99.90;;;;;;5073953;28;20040;-63
2023/06/26 07:13:27;;;;;;;0.85;0.32;;;20.90;99.90;;;;;;5073906;28;20473;-61
2023/06/26 07:15:52;;;;;;;0.10;0.10;;;20.50;99.90;;;;;;5073773;28;20131;-61
2023/06/26 07:18:18;;;;;;;0.55;0.55;;;21.00;99.90;;;;;;5073916;28;20159;-62
2023/06/26 07:20:44;;;;;;;0.38;0.35;;;22.00;99.90;;;;;;5074050;28;20431;-62
2023/06/26 07:23:09;;;;;;;3.22;1.70;;;21.30;99.90;;;;;;5073778;28;20036;-62
2023/06/26 07:25:35;;;;;;;0.20;0.20;;;21.00;99.90;;;;;;5073666;28;20052;-62
2023/06/26 07:28:01;;;;;;;0.10;0.10;;;20.90;99.90;;;;;;5073606;28;20057;-61
2023/06/26 07:30:27;;;;;;;1.02;0.70;;;21.00;99.90;;;;;;5073559;28;20135;-62
2023/06/26 07:32:53;;;;;;;0.17;0.17;;;21.20;99.90;;;;;;5073344;28;20047;-62
2023/06/26 07:35:18;;;;;;;0.38;0.20;;;20.80;99.90;;;;;;5073122;28;20049;-63
2023/06/26 07:37:44;;;;;;;0.30;0.30;;;21.00;99.90;;;;;;5073474;28;20125;-61
2023/06/26 07:40:10;;;;;;;0.52;0.20;;;20.80;99.90;;;;;;5073412;28;20044;-62
2023/06/26 07:42:36;;;;;;;5.00;0.63;;;20.90;99.90;;;;;;5073254;28;20044;-62
2023/06/26 07:45:09;;;;;;;0.98;0.30;;;21.10;99.90;;;;;;5073303;28;20102;-62
2023/06/26 07:47:35;;;;;;;0.32;0.32;;;21.20;99.90;;;;;;5073371;28;20393;-63
2023/06/26 07:50:01;;;;;;;0.47;0.17;;;20.80;99.90;;;;;;5073422;28;20044;-61
2023/06/26 07:52:27;;;;;;;0.30;0.30;;;21.40;99.90;;;;;;5073336;28;20050;-63
2023/06/26 07:54:53;;;;;;;0.15;0.15;;;20.90;99.90;;;;;;5073039;28;20048;-62
2023/06/26 07:57:18;;;;;;;0.43;0.30;;;20.50;99.90;;;;;;5073101;28;20057;-61
2023/06/26 07:59:44;;;;;;;0.47;0.20;;;21.30;99.90;;;;;;5072992;28;20416;-62
2023/06/26 08:02:10;;;;;;;5.25;0.35;;;21.10;99.90;;;;;;5072343;28;20463;-63
2023/06/26 08:04:36;;;;;;;0.20;0.20;;;21.50;99.90;;;;;;5073080;28;20062;-62
2023/06/26 08:07:03;;;;;;;5.68;0.95;;;20.90;99.90;;;;;;5072859;28;20048;-61
2023/06/26 08:09:30;;;;;;;0.75;0.57;;;21.30;99.90;;;;;;5072845;28;20127;-61
2023/06/26 08:11:56;;;;;;;0.43;0.43;;;21.20;99.90;;;;;;5072698;28;20044;-62
2023/06/26 08:14:23;;;;;;;0.68;0.38;;;21.30;99.90;;;;;;5072710;28;20082;-62
2023/06/26 08:16:49;;;;;;;0.25;0.25;;;21.10;99.90;;;;;;5072559;28;20513;-61
2023/06/26 08:19:16;;;;;;;0.15;0.15;;;21.10;99.90;;;;;;5072779;28;20052;-61
2023/06/26 08:21:43;;;;;;;0.20;0.20;;;21.30;99.90;;;;;;5072543;28;20079;-61
2023/06/26 08:24:09;;;;;;;0.10;0.10;;;21.40;99.90;;;;;;5072482;28;20106;-62
2023/06/26 08:26:35;;;;;;;0.17;0.17;;;21.10;99.90;;;;;;5072512;28;20446;-62
2023/06/26 08:29:07;;;;;;;0.25;0.25;;;21.40;99.90;;;;;;5072319;28;20105;-62
2023/06/26 08:31:36;;;;;;;0.10;0.10;;;21.20;99.90;;;;;;5072548;28;20084;-63
2023/06/26 08:34:03;;;;;;;0.10;0.10;;;21.20;99.90;;;;;;5072329;28;20052;-61
2023/06/26 08:36:29;;;;;;;0.10;0.10;;;20.90;99.90;;;;;;5072220;28;20098;-61
2023/06/26 08:38:54;;;;;;;0.30;0.30;;;21.10;99.90;;;;;;5072084;28;20062;-62
2023/06/26 08:41:20;;;;;;;1.65;0.60;;;21.20;99.90;;;;;;5072119;28;20049;-61
2023/06/26 08:43:46;;;;;;;0.20;0.20;;;21.00;99.90;;;;;;5071937;28;20040;-61
2023/06/26 08:46:12;;;;;;;1.35;0.85;;;21.20;99.90;;;;;;5071329;28;20056;-61
2023/06/26 08:48:39;;;;;;;0.20;0.20;;;21.20;99.90;;;;;;5071946;28;20048;-61
2023/06/26 08:51:11;;;;;;;0.13;0.13;;;21.00;99.90;;;;;;5070891;28;20048;-61
2023/06/26 08:53:58;;;;;;;0.40;0.30;;;21.00;99.90;;;;;;5071896;28;20052;-62
2023/06/26 08:56:27;;;;;;;0.20;0.20;;;21.70;99.90;;;;;;5071848;28;20056;-61
2023/06/26 08:58:54;;;;;;;0.63;0.40;;;21.70;99.90;;;;;;5070831;28;20416;-61
2023/06/26 09:01:21;;;;;;;0.10;0.10;;;20.90;99.90;;;;;;5071854;28;20486;-61
2023/06/26 09:03:47;;;;;;;0.30;0.30;;;21.10;99.90;;;;;;5071557;28;20156;-62
2023/06/26 09:06:12;;;;;;;0.52;0.35;;;21.10;99.90;;;;;;5071706;28;20090;-61
2023/06/26 09:08:38;;;;;;;0.20;0.20;;;21.20;99.90;;;;;;5071591;28;20052;-61
2023/06/26 09:11:04;;;;;;;0.47;0.32;;;21.30;99.90;;;;;;5071483;28;20052;-62
2023/06/26 09:13:30;;;;;;;0.43;0.43;;;21.70;99.90;;;;;;5071861;28;20047;-61
2023/06/26 09:15:57;;;;;;;0.10;0.10;;;21.30;99.90;;;;;;5071911;28;20089;-60
2023/06/26 09:18:23;;;;;;;0.60;0.40;;;21.40;99.90;;;;;;5071522;28;20155;-62
2023/06/26 09:20:49;;;;;;;0.30;0.30;;;21.60;99.90;;;;;;5071319;28;20408;-62
2023/06/26 09:23:16;;;;;;;0.20;0.20;;;21.70;99.90;;;;;;5071214;28;20040;-62
2023/06/26 09:25:42;;;;;;;0.20;0.20;;;21.40;99.90;;;;;;5071394;28;20056;-61
2023/06/26 09:28:08;;;;;;;0.30;0.20;;;21.90;99.90;;;;;;5071534;28;20067;-64
2023/06/26 09:30:35;;;;;;;0.10;0.10;;;22.20;99.90;;;;;;5071716;28;20053;-62
2023/06/26 09:33:18;;;;;;;0.30;0.30;;;21.70;99.90;;;;;;5071366;28;20048;-61
2023/06/26 09:35:45;;;;;;;2.90;1.17;;;21.80;99.90;;;;;;5071110;28;20579;-65
2023/06/26 09:38:12;;;;;;;0.35;0.35;;;21.50;99.90;;;;;;5071109;28;20052;-61
2023/06/26 09:40:39;;;;;;;0.10;0.10;;;21.60;99.90;;;;;;5071538;28;20501;-62
2023/06/26 09:43:05;;;;;;;0.20;0.20;;;21.10;99.90;;;;;;5071193;28;20041;-62
2023/06/26 09:45:33;;;;;;;1.15;0.45;;;20.80;99.90;;;;;;5071111;28;20047;-62
2023/06/26 09:48:04;;;;;;;0.10;0.10;;;21.10;99.90;;;;;;5071129;28;20102;-62
2023/06/26 09:50:33;;;;;;;0.68;0.43;;;21.30;99.90;;;;;;5070899;28;20494;-62
2023/06/26 09:53:07;;;;;;;2.00;1.40;;;21.40;99.90;;;;;;5069897;28;20499;-61
2023/06/26 09:55:36;;;;;;;0.20;0.20;;;21.70;99.90;;;;;;5071125;28;20135;-61
2023/06/26 09:58:03;;;;;;;0.20;0.20;;;21.50;99.90;;;;;;5070922;28;20098;-61
2023/06/26 10:00:29;;;;;;;0.90;0.60;;;21.20;99.90;;;;;;5070983;28;20052;-62
2023/06/26 10:02:55;;;;;;;0.20;0.20;;;21.70;99.90;;;;;;5070579;28;20163;-62
2023/06/26 10:05:21;;;;;;;0.10;0.10;;;22.10;99.90;;;;;;5071103;28;20518;-62
2023/06/26 10:07:47;;;;;;;9.45;0.45;;;22.70;99.90;;;;;;5071072;28;20377;-62
2023/06/26 10:10:16;;;;;;;0.35;0.30;;;22.40;99.90;;;;;;5070957;28;20407;-62
2023/06/26 10:12:47;;;;;;;2.92;0.85;;;22.00;99.90;;;;;;5070922;28;20053;-62
2023/06/26 10:15:16;;;;;;;0.20;0.20;;;22.10;99.90;;;;;;5070863;28;20049;-61
2023/06/26 10:17:43;;;;;;;0.35;0.17;;;22.30;99.90;;;;;;5070734;28;20524;-63
2023/06/26 10:20:09;;;;;;;0.30;0.30;;;22.10;99.90;;;;;;5071076;28;20063;-62
2023/06/26 10:22:46;;;;;;;0.22;0.22;;;22.00;99.90;;;;;;5070850;28;20052;-62
2023/06/26 10:25:17;;;;;;;0.20;0.20;;;21.80;99.90;;;;;;5070724;28;20059;-62
2023/06/26 10:27:49;;;;;;;0.10;0.10;;;21.60;99.90;;;;;;5070628;28;20067;-62
2023/06/26 10:30:20;;;;;;;0.50;0.50;;;21.50;99.90;;;;;;5070453;28;20460;-61
2023/06/26 10:32:46;;;;;;;0.10;0.10;;;21.80;99.90;;;;;;5070934;28;20070;-62
2023/06/26 10:35:13;;;;;;;0.40;0.40;;;21.90;99.90;;;;;;5070750;28;20082;-62
2023/06/26 10:37:43;;;;;;;0.10;0.10;;;21.60;99.90;;;;;;5070666;28;20048;-62
2023/06/26 10:40:08;;;;;;;0.30;0.30;;;22.10;99.90;;;;;;5070569;28;20053;-62
2023/06/26 10:42:36;;;;;;;0.32;0.32;;;21.80;99.90;;;;;;5070455;28;20045;-64
2023/06/26 10:45:15;;;;;;;0.45;0.45;;;21.60;99.90;;;;;;5069712;28;20071;-62
2023/06/26 10:47:42;;;;;;;0.10;0.10;;;20.80;99.90;;;;;;5070716;28;20055;-61
2023/06/26 10:50:20;;;;;;;1.15;1.13;;;21.00;99.90;;;;;;5070588;28;20079;-61
2023/06/26 10:53:06;;;;;;;1.20;1.20;;;21.20;99.90;;;;;;5070498;28;20050;-63
2023/06/26 10:55:31;;;;;;;2.17;0.65;;;21.80;99.90;;;;;;5070624;28;20084;-61
2023/06/26 10:57:57;;;;;;;0.52;0.50;;;22.10;99.90;;;;;;5070605;28;20079;-61
2023/06/26 11:00:23;;;;;;;0.10;0.10;;;21.60;99.90;;;;;;5070649;28;20618;-63
2023/06/26 11:02:52;;;;;;;0.00;0.00;;;21.40;99.90;;;;;;5070311;28;20072;-61
2023/06/26 11:05:28;;;;;;;0.30;0.30;;;22.00;99.90;;;;;;5070635;28;20074;-61
2023/06/26 11:08:05;;;;;;;0.40;0.20;;;21.70;99.90;;;;;;5071052;28;20614;-63
2023/06/26 11:10:48;;;;;;;0.15;0.15;;;21.50;99.90;;;;;;5073071;28;20044;-62
2023/06/26 11:13:16;;;;;;;0.00;0.00;;;21.80;99.90;;;;;;5074273;28;20170;-62
2023/06/26 11:15:44;;;;;;;0.05;0.05;;;21.90;99.90;;;;;;5074071;28;20048;-63
2023/06/26 11:18:10;;;;;;;0.15;0.15;;;21.80;99.90;;;;;;5073766;28;20053;-62
2023/06/26 11:20:36;;;;;;;1.65;0.20;;;22.20;99.90;;;;;;5073903;28;20158;-62
2023/06/26 11:23:06;;;;;;;2.30;0.75;;;22.10;99.90;;;;;;5073802;28;20124;-62
2023/06/26 11:25:35;;;;;;;0.90;0.30;;;21.70;99.90;;;;;;5073734;28;20082;-62
2023/06/26 11:28:01;;;;;;;0.10;0.10;;;21.80;99.90;;;;;;5073542;28;20408;-62
2023/06/26 11:30:27;;;;;;;0.35;0.35;;;21.70;99.90;;;;;;5073503;28;20040;-62
2023/06/26 11:32:52;;;;;;;0.93;0.80;;;22.20;99.90;;;;;;5073697;28;20047;-63
2023/06/26 11:35:29;;;;;;;0.20;0.20;;;22.10;99.90;;;;;;5073740;28;20056;-62
2023/06/26 11:38:03;;;;;;;0.13;0.13;;;22.40;99.90;;;;;;5073634;28;20082;-62
2023/06/26 11:40:31;;;;;;;0.63;0.22;;;22.40;99.90;;;;;;5073507;28;20057;-62
2023/06/26 11:43:01;;;;;;;0.43;0.38;;;22.70;99.90;;;;;;5073196;28;20504;-64
2023/06/26 11:45:31;;;;;;;0.50;0.50;;;23.00;99.90;;;;;;5073531;28;20052;-62
2023/06/26 11:47:58;;;;;;;0.10;0.10;;;22.50;99.90;;;;;;5073561;28;20052;-62
2023/06/26 11:50:24;;;;;;;0.73;0.73;;;22.90;99.90;;;;;;5073338;28;20040;-62
2023/06/26 11:52:57;;;;;;;3.78;1.20;;;23.20;99.90;;;;;;5073248;28;20450;-63
2023/06/26 11:55:24;;;;;;;0.38;0.38;;;22.50;99.90;;;;;;5073111;28;20059;-62
2023/06/26 11:57:53;;;;;;;0.20;0.20;;;22.80;99.90;;;;;;5072930;28;20406;-62
2023/06/26 12:00:19;;;;;;;0.40;0.40;;;22.40;99.90;;;;;;5073201;28;20052;-61
2023/06/26 12:02:49;;;;;;;0.10;0.10;;;22.20;99.90;;;;;;5072771;28;20114;-62
2023/06/26 12:05:16;;;;;;;0.28;0.28;;;22.20;99.90;;;;;;5073012;28;20647;-62
2023/06/26 12:07:47;;;;;;;0.30;0.30;;;21.80;99.90;;;;;;5072845;28;20052;-64
2023/06/26 12:10:15;;;;;;;0.50;0.50;;;21.50;99.90;;;;;;5072614;28;20141;-63
2023/06/26 12:12:41;;;;;;;0.10;0.10;;;21.30;99.90;;;;;;5072851;28;20550;-62
2023/06/26 12:15:08;;;;;;;0.63;0.47;;;21.40;99.90;;;;;;5071460;28;20045;-62
2023/06/26 12:17:41;;;;;;;0.32;0.32;;;21.60;99.90;;;;;;5072807;28;20063;-62
2023/06/26 12:20:21;;;;;;;0.10;0.10;;;21.80;99.90;;;;;;5072556;28;20545;-61
2023/06/26 12:22:48;;;;;;;0.40;0.40;;;21.70;99.90;;;;;;5072370;28;20044;-62
2023/06/26 12:25:14;;;;;;;0.10;0.10;;;22.40;99.90;;;;;;5072500;28;20062;-62
2023/06/26 12:27:40;;;;;;;0.10;0.10;;;22.10;99.90;;;;;;5072574;28;20088;-62
2023/06/26 12:30:07;;;;;;;0.25;0.25;;;22.40;99.90;;;;;;5072381;28;20088;-63
2023/06/26 12:32:34;;;;;;;0.20;0.20;;;22.60;99.90;;;;;;5072228;28;20102;-62
2023/06/26 12:35:01;;;;;;;0.30;0.30;;;22.50;99.90;;;;;;5072355;28;20060;-64
2023/06/26 12:37:26;;;;;;;0.17;0.17;;;22.80;99.90;;;;;;5072259;28;20045;-63
2023/06/26 12:39:57;;;;;;;0.10;0.10;;;22.50;99.90;;;;;;5072348;28;20040;-61
2023/06/26 12:42:33;;;;;;;0.05;0.05;;;22.70;99.90;;;;;;5072284;28;20088;-62
2023/06/26 12:44:59;;;;;;;0.85;0.40;;;22.40;99.90;;;;;;5072040;28;20135;-61
2023/06/26 12:47:29;;;;;;;0.20;0.20;;;22.60;99.90;;;;;;5072142;28;20143;-61